Time;durP1;ratioP1;P1;durP2;ratioP2;P2;SDS_P1;SDS_P2;PMS_P1;PMS_P2;Temp;Humidity;BMP_temperature;BMP_pressure;BME280_temperature;BME280_humidity;BME280_pressure;Samples;Min_cycle;Max_cycle;Signal;HPM_P1;HPM_P2
2023/07/12 00:00:43;;;;;;;4.45;2.83;;;;;;;;;;5025609;28;20106;-82
2023/07/12 00:03:09;;;;;;;6.28;2.95;;;;;;;;;;5034899;28;20025;-82
2023/07/12 00:05:35;;;;;;;6.18;2.55;;;;;;;;;;5048646;28;20063;-83
2023/07/12 00:08:02;;;;;;;5.32;3.00;;;;;;;;;;5032850;28;20029;-83
2023/07/12 00:10:30;;;;;;;7.57;2.88;;;;;;;;;;5018108;28;20036;-83
2023/07/12 00:12:56;;;;;;;5.05;2.72;;;;;;;;;;5035726;28;20037;-82
2023/07/12 00:15:28;;;;;;;5.22;3.00;;;;;;;;;;5025453;28;20420;-83
2023/07/12 00:17:54;;;;;;;5.55;2.67;;;;;;;;;;5038014;28;20042;-83
2023/07/12 00:20:27;;;;;;;5.38;3.00;;;;;;;;;;5033028;28;20409;-83
2023/07/12 00:22:53;;;;;;;5.05;2.85;;;;;;;;;;5034640;28;20044;-83
2023/07/12 00:25:21;;;;;;;6.47;2.85;;;;;;;;;;5031185;28;20112;-84
2023/07/12 00:27:47;;;;;;;5.90;3.10;;;;;;;;;;5026124;28;20037;-83
2023/07/12 00:30:15;;;;;;;5.95;2.97;;;;;;;;;;5031123;28;20156;-83
2023/07/12 00:32:41;;;;;;;5.90;3.10;;;;;;;;;;5023600;28;20107;-82
2023/07/12 00:35:07;;;;;;;6.03;2.88;;;;;;;;;;5037725;28;20041;-82
2023/07/12 00:37:32;;;;;;;8.48;2.72;;;;;;;;;;5034823;28;20040;-82
2023/07/12 00:39:58;;;;;;;5.13;3.00;;;;;;;;;;5018506;28;20416;-82
2023/07/12 00:42:29;;;;;;;6.07;3.60;;;;;;;;;;5017220;28;20041;-83
2023/07/12 00:44:56;;;;;;;4.95;2.80;;;;;;;;;;5014475;28;20037;-83
2023/07/12 00:47:22;;;;;;;5.72;2.80;;;;;;;;;;5017850;28;20030;-83
2023/07/12 00:49:51;;;;;;;5.70;3.08;;;;;;;;;;5018089;28;20033;-82
2023/07/12 00:52:19;;;;;;;5.75;3.10;;;;;;;;;;5030074;28;20442;-83
2023/07/12 00:54:58;;;;;;;;;;;;;;;;;;5015760;28;20051;-83
2023/07/12 00:57:25;;;;;;;4.20;2.53;;;;;;;;;;5024000;28;19921;-83
2023/07/12 00:59:53;;;;;;;7.80;3.13;;;;;;;;;;5030933;28;20045;-82
2023/07/12 01:02:18;;;;;;;;;;;;;;;;;;4988978;28;20035;-82
2023/07/12 01:04:47;;;;;;;6.93;3.35;;;;;;;;;;5017064;28;19916;-83
2023/07/12 01:07:13;;;;;;;5.25;3.45;;;;;;;;;;5040394;28;20040;-82
2023/07/12 01:09:39;;;;;;;6.20;3.28;;;;;;;;;;5017745;28;20064;-83
2023/07/12 01:12:05;;;;;;;5.97;3.10;;;;;;;;;;5032234;28;20406;-83
2023/07/12 01:14:31;;;;;;;6.13;3.30;;;;;;;;;;5032795;28;20037;-82
2023/07/12 01:17:05;;;;;;;6.97;3.28;;;;;;;;;;5015106;28;20037;-83
2023/07/12 01:19:32;;;;;;;5.57;3.60;;;;;;;;;;5022970;28;20559;-83
2023/07/12 01:22:01;;;;;;;5.80;3.67;;;;;;;;;;5019503;28;20033;-82
2023/07/12 01:24:28;;;;;;;8.07;3.58;;;;;;;;;;5045994;28;20136;-83
2023/07/12 01:26:57;;;;;;;6.32;3.50;;;;;;;;;;5032058;28;20042;-83
2023/07/12 01:29:23;;;;;;;5.82;3.30;;;;;;;;;;5041479;28;20079;-83
2023/07/12 01:31:49;;;;;;;7.85;3.25;;;;;;;;;;5008846;28;20456;-83
2023/07/12 01:34:16;;;;;;;6.43;3.50;;;;;;;;;;5001515;28;20037;-83
2023/07/12 01:36:41;;;;;;;4.82;3.30;;;;;;;;;;5023279;28;20037;-83
2023/07/12 01:39:07;;;;;;;6.30;3.28;;;;;;;;;;5034049;28;20057;-83
2023/07/12 01:41:32;;;;;;;5.68;3.30;;;;;;;;;;5014286;28;20033;-83
2023/07/12 01:43:58;;;;;;;5.75;3.50;;;;;;;;;;5038129;28;20065;-83
2023/07/12 01:46:24;;;;;;;6.93;3.80;;;;;;;;;;5017622;28;20041;-83
2023/07/12 01:48:50;;;;;;;8.05;3.50;;;;;;;;;;5033512;28;20034;-82
2023/07/12 01:51:16;;;;;;;6.15;3.55;;;;;;;;;;5032976;28;20044;-82
2023/07/12 01:53:42;;;;;;;6.97;3.63;;;;;;;;;;5043772;28;20402;-82
2023/07/12 01:56:09;;;;;;;5.47;3.40;;;;;;;;;;5034599;28;20044;-81
2023/07/12 01:58:36;;;;;;;5.22;3.22;;;;;;;;;;5012988;28;20048;-82
2023/07/12 02:01:01;;;;;;;6.03;3.50;;;;;;;;;;5022666;28;20057;-83
2023/07/12 02:03:27;;;;;;;5.20;3.20;;;;;;;;;;5037019;28;20559;-82
2023/07/12 02:05:57;;;;;;;5.60;3.63;;;;;;;;;;5032543;28;20120;-83
2023/07/12 02:08:23;;;;;;;6.05;3.60;;;;;;;;;;5031252;28;20033;-82
2023/07/12 02:10:51;;;;;;;5.05;3.47;;;;;;;;;;5035344;28;20405;-82
2023/07/12 02:13:18;;;;;;;6.05;3.67;;;;;;;;;;5025494;28;20099;-81
2023/07/12 02:15:43;;;;;;;6.28;3.75;;;;;;;;;;5044574;28;20477;-82
2023/07/12 02:18:10;;;;;;;7.60;3.70;;;;;;;;;;5035028;28;20029;-82
2023/07/12 02:20:39;;;;;;;6.13;3.83;;;;;;;;;;5018615;28;20030;-82
2023/07/12 02:23:04;;;;;;;8.13;3.72;;;;;;;;;;5021563;28;20039;-82
2023/07/12 02:25:32;;;;;;;6.75;3.60;;;;;;;;;;5039147;28;20447;-81
2023/07/12 02:27:58;;;;;;;5.45;3.70;;;;;;;;;;5017129;28;20038;-82
2023/07/12 02:30:25;;;;;;;7.57;3.88;;;;;;;;;;5033963;28;20045;-82
2023/07/12 02:32:57;;;;;;;7.45;4.05;;;;;;;;;;5043513;28;20037;-82
2023/07/12 02:35:27;;;;;;;5.72;4.00;;;;;;;;;;5035588;28;20393;-83
2023/07/12 02:37:54;;;;;;;6.22;4.15;;;;;;;;;;5022789;28;20033;-82
2023/07/12 02:40:19;;;;;;;8.17;3.90;;;;;;;;;;5027776;28;20585;-82
2023/07/12 02:42:45;;;;;;;6.10;3.80;;;;;;;;;;5021108;28;20124;-82
2023/07/12 02:45:10;;;;;;;6.70;3.70;;;;;;;;;;5033749;28;20029;-82
2023/07/12 02:47:38;;;;;;;9.40;4.45;;;;;;;;;;5036200;28;20029;-82
2023/07/12 02:50:05;;;;;;;6.43;3.90;;;;;;;;;;5029129;28;20053;-83
2023/07/12 02:52:31;;;;;;;6.43;3.60;;;;;;;;;;5028301;28;20037;-82
2023/07/12 02:54:56;;;;;;;9.07;4.15;;;;;;;;;;5048696;28;20037;-81
2023/07/12 02:57:22;;;;;;;7.00;4.18;;;;;;;;;;5008339;28;20063;-82
2023/07/12 03:00:07;;;;;;;8.00;4.38;;;;;;;;;;5025895;28;20120;-81
2023/07/12 03:02:33;;;;;;;6.32;4.35;;;;;;;;;;4977921;28;20039;-82
2023/07/12 03:04:58;;;;;;;6.82;3.88;;;;;;;;;;4964559;28;20045;-81
2023/07/12 03:07:23;;;;;;;9.07;4.15;;;;;;;;;;4984803;28;20037;-82
2023/07/12 03:09:54;;;;;;;7.88;4.28;;;;;;;;;;4985825;28;20470;-81
2023/07/12 03:12:20;;;;;;;6.28;4.03;;;;;;;;;;4952473;28;20453;-81
2023/07/12 03:14:45;;;;;;;7.72;4.57;;;;;;;;;;4966254;28;20038;-82
2023/07/12 03:17:11;;;;;;;6.50;4.38;;;;;;;;;;4970570;28;20045;-82
2023/07/12 03:19:36;;;;;;;7.25;4.40;;;;;;;;;;4981590;28;20450;-82
2023/07/12 03:22:02;;;;;;;6.93;4.60;;;;;;;;;;4973899;28;20075;-82
2023/07/12 03:24:28;;;;;;;8.30;3.90;;;;;;;;;;4963409;28;20085;-83
2023/07/12 03:26:53;;;;;;;6.32;4.43;;;;;;;;;;4985098;28;20056;-81
2023/07/12 03:29:19;;;;;;;7.40;4.10;;;;;;;;;;4969198;28;20038;-81
2023/07/12 03:31:44;;;;;;;6.95;4.30;;;;;;;;;;4984442;28;20038;-82
2023/07/12 03:34:10;;;;;;;6.93;3.78;;;;;;;;;;4965790;28;20069;-83
2023/07/12 03:36:38;;;;;;;6.25;4.15;;;;;;;;;;4967520;28;20395;-82
2023/07/12 03:39:03;;;;;;;8.05;4.50;;;;;;;;;;4978496;28;20037;-82
2023/07/12 03:41:29;;;;;;;9.30;4.68;;;;;;;;;;5017910;28;21088;-82
2023/07/12 03:43:54;;;;;;;7.13;4.30;;;;;;;;;;5013892;28;20439;-82
2023/07/12 03:46:20;;;;;;;7.00;4.30;;;;;;;;;;5004988;28;20026;-83
2023/07/12 03:48:45;;;;;;;8.10;4.65;;;;;;;;;;5015399;28;20037;-83
2023/07/12 03:51:11;;;;;;;6.80;4.60;;;;;;;;;;5034772;28;20091;-84
2023/07/12 03:53:37;;;;;;;7.82;4.38;;;;;;;;;;5022762;28;20037;-83
2023/07/12 03:56:03;;;;;;;6.65;4.28;;;;;;;;;;5024585;28;20048;-83
2023/07/12 03:58:32;;;;;;;8.60;4.93;;;;;;;;;;5014476;28;20043;-83
2023/07/12 04:01:01;;;;;;;9.23;4.40;;;;;;;;;;5021998;28;20037;-82
2023/07/12 04:03:27;;;;;;;7.32;5.00;;;;;;;;;;5019080;28;20391;-82
2023/07/12 04:05:52;;;;;;;6.75;4.30;;;;;;;;;;5034758;28;20049;-82
2023/07/12 04:08:38;;;;;;;6.72;4.40;;;;;;;;;;5003402;28;20083;-81
2023/07/12 04:11:05;;;;;;;7.95;4.97;;;;;;;;;;5024082;28;20137;-82
2023/07/12 04:13:31;;;;;;;8.57;4.68;;;;;;;;;;5031613;28;20040;-82
2023/07/12 04:15:59;;;;;;;7.22;4.57;;;;;;;;;;5018002;28;20033;-82
2023/07/12 04:18:25;;;;;;;9.05;4.90;;;;;;;;;;5034196;28;20044;-82
2023/07/12 04:20:52;;;;;;;8.80;5.20;;;;;;;;;;5014647;28;20047;-82
2023/07/12 04:23:17;;;;;;;7.70;4.70;;;;;;;;;;5021814;28;20041;-82
2023/07/12 04:25:43;;;;;;;7.65;5.32;;;;;;;;;;5018976;28;20488;-83
2023/07/12 04:28:09;;;;;;;7.93;4.72;;;;;;;;;;5011715;28;20360;-81
2023/07/12 04:30:35;;;;;;;6.82;4.55;;;;;;;;;;5016218;28;20047;-81
2023/07/12 04:33:01;;;;;;;8.55;5.32;;;;;;;;;;5037401;28;20029;-82
2023/07/12 04:35:26;;;;;;;7.53;4.88;;;;;;;;;;5020882;28;20051;-82
2023/07/12 04:37:57;;;;;;;7.20;5.13;;;;;;;;;;5038835;28;20033;-82
2023/07/12 04:40:22;;;;;;;7.25;4.75;;;;;;;;;;5022062;28;20036;-81
2023/07/12 04:42:48;;;;;;;10.57;5.20;;;;;;;;;;5040852;28;20393;-82
2023/07/12 04:45:19;;;;;;;11.85;5.10;;;;;;;;;;5006389;28;20033;-81
2023/07/12 04:47:45;;;;;;;6.70;4.65;;;;;;;;;;5024706;28;20033;-82
2023/07/12 04:50:11;;;;;;;12.25;5.38;;;;;;;;;;5020872;28;20037;-82
2023/07/12 04:52:37;;;;;;;9.93;5.45;;;;;;;;;;5024406;28;20037;-82
2023/07/12 04:55:04;;;;;;;10.07;5.65;;;;;;;;;;5031141;28;20043;-82
2023/07/12 04:57:30;;;;;;;7.78;4.93;;;;;;;;;;5033188;28;20041;-82
2023/07/12 04:59:55;;;;;;;10.35;5.93;;;;;;;;;;5025211;28;20047;-82
2023/07/12 05:02:21;;;;;;;9.70;5.78;;;;;;;;;;5030460;28;20041;-82
2023/07/12 05:04:49;;;;;;;8.15;5.70;;;;;;;;;;5034079;28;20037;-84
2023/07/12 05:07:15;;;;;;;10.82;6.28;;;;;;;;;;5018603;28;20029;-83
2023/07/12 05:09:40;;;;;;;10.25;6.13;;;;;;;;;;5024444;28;20056;-84
2023/07/12 05:12:26;;;;;;;9.98;6.20;;;;;;;;;;5029570;28;20086;-83
2023/07/12 05:14:51;;;;;;;10.05;6.18;;;;;;;;;;5033599;28;20029;-83
2023/07/12 05:17:41;;;;;;;10.13;6.78;;;;;;;;;;5036434;28;20074;-84
2023/07/12 05:20:10;;;;;;;10.75;6.10;;;;;;;;;;4972356;28;20406;-84
2023/07/12 05:22:36;;;;;;;9.73;6.45;;;;;;;;;;4956464;28;20047;-85
2023/07/12 05:25:01;;;;;;;9.77;6.80;;;;;;;;;;4946958;28;20525;-85
2023/07/12 05:27:26;;;;;;;8.63;6.10;;;;;;;;;;4969077;28;20451;-82
2023/07/12 05:29:52;;;;;;;8.45;6.10;;;;;;;;;;4948566;28;20039;-82
2023/07/12 05:32:20;;;;;;;10.43;6.43;;;;;;;;;;4976719;28;20577;-82
2023/07/12 05:34:46;;;;;;;8.70;6.28;;;;;;;;;;4963974;28;20070;-81
2023/07/12 05:37:12;;;;;;;9.38;6.50;;;;;;;;;;4965550;28;20514;-81
2023/07/12 05:39:38;;;;;;;11.27;6.53;;;;;;;;;;4962806;28;20037;-81
2023/07/12 05:42:04;;;;;;;8.82;6.40;;;;;;;;;;4952178;28;20043;-81
2023/07/12 05:44:29;;;;;;;10.77;6.25;;;;;;;;;;4959893;28;20059;-81
2023/07/12 05:46:55;;;;;;;9.05;6.32;;;;;;;;;;4954628;28;20134;-81
2023/07/12 05:49:30;;;;;;;10.55;6.75;;;;;;;;;;4957381;28;20074;-81
2023/07/12 05:51:56;;;;;;;10.70;6.10;;;;;;;;;;4965020;28;20043;-81
2023/07/12 05:54:21;;;;;;;9.65;6.20;;;;;;;;;;4954281;28;20084;-81
2023/07/12 05:56:46;;;;;;;8.57;6.13;;;;;;;;;;4955127;28;20025;-81
2023/07/12 05:59:12;;;;;;;10.88;6.47;;;;;;;;;;5023476;28;20108;-80
2023/07/12 06:01:37;;;;;;;11.27;6.15;;;;;;;;;;5037475;28;20045;-80
2023/07/12 06:04:03;;;;;;;9.10;6.28;;;;;;;;;;5021621;28;20419;-81
2023/07/12 06:06:28;;;;;;;9.05;6.43;;;;;;;;;;5022714;28;20037;-80
2023/07/12 06:08:54;;;;;;;9.68;6.38;;;;;;;;;;5001468;28;20089;-80
2023/07/12 06:11:19;;;;;;;9.10;5.95;;;;;;;;;;5013420;28;20045;-81
2023/07/12 06:13:45;;;;;;;9.00;6.03;;;;;;;;;;5020443;28;20038;-80
2023/07/12 06:16:16;;;;;;;13.23;6.05;;;;;;;;;;5007085;28;20032;-81
2023/07/12 06:18:41;;;;;;;8.18;5.85;;;;;;;;;;5027879;28;20037;-81
2023/07/12 06:21:08;;;;;;;9.70;5.90;;;;;;;;;;5037236;28;20038;-81
2023/07/12 06:23:33;;;;;;;11.02;5.35;;;;;;;;;;5029798;28;20447;-81
2023/07/12 06:25:59;;;;;;;9.25;5.50;;;;;;;;;;5026331;28;20041;-80
2023/07/12 06:28:25;;;;;;;7.65;5.10;;;;;;;;;;5021332;28;20044;-79
2023/07/12 06:30:51;;;;;;;7.25;4.65;;;;;;;;;;5033917;28;20033;-81
2023/07/12 06:33:17;;;;;;;9.02;5.10;;;;;;;;;;5024334;28;20025;-80
2023/07/12 06:35:48;;;;;;;7.95;4.53;;;;;;;;;;5036524;28;20120;-79
2023/07/12 06:38:13;;;;;;;7.30;4.63;;;;;;;;;;5027076;28;20397;-82
2023/07/12 06:40:39;;;;;;;9.63;4.25;;;;;;;;;;5038131;28;20029;-80
2023/07/12 06:43:04;;;;;;;6.00;3.92;;;;;;;;;;5033029;28;20041;-80
2023/07/12 06:45:30;;;;;;;10.45;4.20;;;;;;;;;;5021744;28;20061;-80
2023/07/12 06:47:55;;;;;;;7.03;3.92;;;;;;;;;;5020699;28;20037;-80
2023/07/12 06:50:21;;;;;;;7.82;4.07;;;;;;;;;;5037638;28;20039;-80
2023/07/12 06:52:47;;;;;;;7.53;4.00;;;;;;;;;;5037519;28;20559;-81
2023/07/12 06:55:12;;;;;;;9.30;5.45;;;;;;;;;;5021662;28;20033;-80
2023/07/12 06:57:37;;;;;;;8.73;3.95;;;;;;;;;;5024545;28;20033;-79
2023/07/12 07:00:07;;;;;;;7.10;3.90;;;;;;;;;;5028399;28;20086;-80
2023/07/12 07:02:33;;;;;;;6.93;4.20;;;;;;;;;;5012337;28;20116;-81
2023/07/12 07:04:58;;;;;;;5.68;4.07;;;;;;;;;;5004178;28;20441;-80
2023/07/12 07:07:23;;;;;;;7.95;3.88;;;;;;;;;;5032050;28;20424;-80
2023/07/12 07:09:49;;;;;;;8.60;4.10;;;;;;;;;;5039550;28;20041;-81
2023/07/12 07:12:18;;;;;;;9.23;4.18;;;;;;;;;;5034603;28;20038;-79
2023/07/12 07:14:43;;;;;;;8.38;4.25;;;;;;;;;;5022137;28;20041;-81
2023/07/12 07:17:10;;;;;;;7.95;4.32;;;;;;;;;;5025647;28;20481;-82
2023/07/12 07:19:35;;;;;;;7.00;4.30;;;;;;;;;;5037654;28;20542;-79
2023/07/12 07:22:01;;;;;;;8.45;4.25;;;;;;;;;;5036651;28;20048;-81
2023/07/12 07:24:37;;;;;;;10.20;4.35;;;;;;;;;;5021979;28;20038;-80
2023/07/12 07:27:02;;;;;;;6.95;4.10;;;;;;;;;;5022692;28;20040;-79
2023/07/12 07:29:28;;;;;;;9.55;4.70;;;;;;;;;;5015851;28;20029;-80
2023/07/12 07:31:53;;;;;;;11.02;4.28;;;;;;;;;;5019431;28;20513;-80
2023/07/12 07:34:19;;;;;;;7.88;4.60;;;;;;;;;;5012019;28;20040;-79
2023/07/12 07:36:44;;;;;;;8.50;4.47;;;;;;;;;;5016620;28;20139;-80
2023/07/12 07:39:10;;;;;;;6.32;4.20;;;;;;;;;;5049942;28;20034;-80
2023/07/12 07:41:36;;;;;;;9.02;5.10;;;;;;;;;;5036135;28;20040;-80
2023/07/12 07:44:02;;;;;;;9.70;5.05;;;;;;;;;;5050682;28;20037;-81
2023/07/12 07:46:27;;;;;;;8.13;4.40;;;;;;;;;;5033562;28;20033;-81
2023/07/12 07:48:53;;;;;;;8.05;5.35;;;;;;;;;;5048919;28;20413;-80
2023/07/12 07:51:19;;;;;;;7.18;4.78;;;;;;;;;;5050598;28;20036;-80
2023/07/12 07:53:44;;;;;;;6.88;4.78;;;;;;;;;;5020598;28;20044;-81
2023/07/12 07:56:11;;;;;;;10.20;5.00;;;;;;;;;;5029622;28;20130;-81
2023/07/12 07:58:36;;;;;;;7.88;5.07;;;;;;;;;;5001818;28;20058;-80
2023/07/12 08:01:02;;;;;;;8.35;4.85;;;;;;;;;;5017360;28;20033;-82
2023/07/12 08:03:29;;;;;;;7.07;4.05;;;;;;;;;;5019945;28;20041;-81
2023/07/12 08:06:03;;;;;;;7.78;4.90;;;;;;;;;;5040658;28;20064;-81
2023/07/12 08:08:33;;;;;;;10.85;4.20;;;;;;;;;;5022752;28;20045;-80
2023/07/12 08:10:58;;;;;;;6.43;3.55;;;;;;;;;;5027694;28;20420;-80
2023/07/12 08:13:24;;;;;;;5.93;3.40;;;;;;;;;;5036678;28;20032;-80
2023/07/12 08:15:50;;;;;;;7.07;3.47;;;;;;;;;;5016139;28;20578;-81
2023/07/12 08:18:15;;;;;;;5.88;3.38;;;;;;;;;;5038026;28;20083;-81
2023/07/12 08:20:42;;;;;;;6.22;3.42;;;;;;;;;;5019994;28;20030;-82
2023/07/12 08:23:08;;;;;;;4.93;3.42;;;;;;;;;;5020342;28;20404;-80
2023/07/12 08:25:34;;;;;;;5.72;2.92;;;;;;;;;;5035586;28;20818;-80
2023/07/12 08:27:59;;;;;;;6.22;3.65;;;;;;;;;;5020791;28;20064;-82
2023/07/12 08:30:25;;;;;;;5.75;3.30;;;;;;;;;;5012181;28;20061;-80
2023/07/12 08:32:50;;;;;;;6.03;3.15;;;;;;;;;;5038614;28;20033;-81
2023/07/12 08:35:18;;;;;;;4.55;2.60;;;;;;;;;;5035839;28;20036;-80
2023/07/12 08:37:43;;;;;;;3.75;2.20;;;;;;;;;;5025224;28;20670;-80
2023/07/12 08:40:13;;;;;;;4.28;2.40;;;;;;;;;;5033194;28;20044;-80
2023/07/12 08:42:42;;;;;;;4.60;2.45;;;;;;;;;;5021991;28;20538;-81
2023/07/12 08:45:25;;;;;;;3.92;2.15;;;;;;;;;;5020234;28;20603;-80
2023/07/12 08:47:54;;;;;;;3.28;1.90;;;;;;;;;;5034397;28;20501;-81
2023/07/12 08:50:21;;;;;;;3.75;2.10;;;;;;;;;;5033326;28;20037;-80
2023/07/12 08:52:46;;;;;;;3.17;1.98;;;;;;;;;;5019752;28;20055;-81
2023/07/12 08:55:15;;;;;;;4.55;2.05;;;;;;;;;;5049236;28;20493;-80
2023/07/12 08:57:41;;;;;;;5.75;1.88;;;;;;;;;;5030669;28;20043;-80
2023/07/12 09:00:22;;;;;;;4.00;1.80;;;;;;;;;;5038950;28;20040;-82
2023/07/12 09:03:08;;;;;;;4.40;1.67;;;;;;;;;;5023873;28;20583;-82
2023/07/12 09:05:33;;;;;;;4.93;1.88;;;;;;;;;;4991190;28;20030;-83
2023/07/12 09:08:08;;;;;;;4.95;1.80;;;;;;;;;;4971623;28;20445;-83
2023/07/12 09:10:41;;;;;;;5.28;1.70;;;;;;;;;;4983461;28;20161;-82
2023/07/12 09:13:10;;;;;;;3.70;1.73;;;;;;;;;;4968238;28;20038;-82
2023/07/12 09:15:54;;;;;;;3.90;1.50;;;;;;;;;;4959675;28;20042;-83
2023/07/12 09:18:28;;;;;;;3.42;1.67;;;;;;;;;;4960485;28;20042;-83
2023/07/12 09:20:54;;;;;;;3.10;1.40;;;;;;;;;;4967798;28;20042;-83
2023/07/12 09:23:20;;;;;;;4.25;1.70;;;;;;;;;;4982958;28;20582;-82
2023/07/12 09:25:56;;;;;;;4.13;1.77;;;;;;;;;;4976457;28;20040;-83
2023/07/12 09:28:22;;;;;;;3.53;1.67;;;;;;;;;;4960076;28;20037;-83
2023/07/12 09:30:50;;;;;;;3.50;1.60;;;;;;;;;;4966672;28;20034;-82
2023/07/12 09:33:28;;;;;;;4.55;1.67;;;;;;;;;;4965610;28;20030;-84
2023/07/12 09:35:55;;;;;;;3.08;1.63;;;;;;;;;;4990084;28;20461;-83
2023/07/12 09:38:24;;;;;;;4.97;1.98;;;;;;;;;;4966836;28;20038;-83
2023/07/12 09:40:51;;;;;;;3.40;1.70;;;;;;;;;;4958457;28;20153;-83
2023/07/12 09:43:23;;;;;;;3.88;1.70;;;;;;;;;;5023734;28;20552;-82
2023/07/12 09:46:11;;;;;;;2.42;1.30;;;;;;;;;;5039119;28;20553;-83
2023/07/12 09:48:48;;;;;;;3.92;1.52;;;;;;;;;;5041605;28;20064;-82
2023/07/12 09:52:05;;;;;;;3.67;1.38;;;;;;;;;;5031781;28;20460;-82
2023/07/12 09:54:43;;;;;;;3.25;1.42;;;;;;;;;;4965975;28;20403;-82
2023/07/12 09:57:28;;;;;;;2.08;0.98;;;;;;;;;;4965061;28;20141;-83
2023/07/12 09:59:54;;;;;;;2.58;1.00;;;;;;;;;;4957235;28;20042;-82
2023/07/12 10:02:38;;;;;;;2.10;0.90;;;;;;;;;;4966961;28;20042;-82
2023/07/12 10:05:09;;;;;;;4.68;1.30;;;;;;;;;;4980180;28;20034;-82
2023/07/12 10:08:24;;;;;;;3.58;1.10;;;;;;;;;;4949038;28;20039;-82
2023/07/12 10:10:59;;;;;;;2.70;1.00;;;;;;;;;;4933128;28;20116;-81
2023/07/12 10:13:47;;;;;;;3.70;1.30;;;;;;;;;;4970370;28;20035;-85
2023/07/12 10:16:19;;;;;;;2.65;1.25;;;;;;;;;;4983270;28;20505;-85
2023/07/12 10:18:45;;;;;;;2.67;1.40;;;;;;;;;;4970216;28;20042;-84
2023/07/12 10:21:19;;;;;;;3.50;1.50;;;;;;;;;;4967537;28;20034;-85
2023/07/12 10:23:55;;;;;;;3.10;1.30;;;;;;;;;;4968656;28;20273;-85
2023/07/12 10:26:20;;;;;;;4.93;1.30;;;;;;;;;;5027653;28;20037;-85
2023/07/12 10:29:04;;;;;;;4.57;1.17;;;;;;;;;;5019595;28;20397;-84
2023/07/12 10:31:51;;;;;;;3.67;1.20;;;;;;;;;;5049732;28;20099;-84
2023/07/12 10:34:34;;;;;;;3.17;1.20;;;;;;;;;;5015715;28;20041;-83
2023/07/12 10:37:16;;;;;;;3.08;1.30;;;;;;;;;;5026273;28;20176;-85
2023/07/12 10:39:41;;;;;;;2.75;1.10;;;;;;;;;;5030307;28;20032;-86
2023/07/12 10:42:28;;;;;;;2.87;1.10;;;;;;;;;;5033574;28;20037;-84
2023/07/12 10:44:56;;;;;;;3.22;1.00;;;;;;;;;;5013220;28;20033;-86
2023/07/12 10:47:24;;;;;;;2.35;1.05;;;;;;;;;;5019149;28;20496;-85
2023/07/12 10:49:58;;;;;;;1.88;0.77;;;;;;;;;;5034716;28;20546;-85
2023/07/12 10:52:33;;;;;;;2.42;0.90;;;;;;;;;;5048771;28;20043;-84
2023/07/12 10:55:22;;;;;;;2.20;0.90;;;;;;;;;;5041322;28;20045;-84
2023/07/12 10:57:51;;;;;;;2.83;0.88;;;;;;;;;;5017181;28;20059;-83
2023/07/12 11:00:25;;;;;;;2.22;0.82;;;;;;;;;;5017829;28;20040;-84
2023/07/12 11:03:01;;;;;;;2.97;0.88;;;;;;;;;;5017730;28;20142;-85
2023/07/12 11:06:04;;;;;;;2.70;0.90;;;;;;;;;;5049441;28;21097;-85
2023/07/12 11:08:29;;;;;;;3.55;1.25;;;;;;;;;;5018652;28;20081;-85
2023/07/12 11:10:55;;;;;;;2.80;0.90;;;;;;;;;;5025162;28;20073;-85
2023/07/12 11:13:21;;;;;;;4.80;1.20;;;;;;;;;;5022447;28;20045;-86
2023/07/12 11:16:14;;;;;;;1.90;0.77;;;;;;;;;;5039127;28;20527;-85
2023/07/12 11:18:57;;;;;;;2.92;0.73;;;;;;;;;;4995750;28;20048;-84
2023/07/12 11:21:28;;;;;;;3.53;0.80;;;;;;;;;;5037456;28;20037;-83
2023/07/12 11:23:54;;;;;;;3.35;0.80;;;;;;;;;;5042164;28;20040;-84
2023/07/12 11:26:32;;;;;;;2.40;0.90;;;;;;;;;;5015393;28;20041;-84
2023/07/12 11:29:27;;;;;;;2.00;0.70;;;;;;;;;;5048002;28;20111;-86
2023/07/12 11:32:11;;;;;;;2.17;0.80;;;;;;;;;;5032196;28;20037;-84
2023/07/12 11:34:40;;;;;;;3.85;1.00;;;;;;;;;;5050745;28;20282;-86
2023/07/12 11:37:24;;;;;;;2.60;0.90;;;;;;;;;;5032869;28;20029;-85
2023/07/12 11:39:52;;;;;;;1.85;0.75;;;;;;;;;;5023472;28;20493;-84
2023/07/12 11:42:26;;;;;;;2.65;0.70;;;;;;;;;;5019376;28;20318;-81
2023/07/12 11:45:02;;;;;;;3.80;1.00;;;;;;;;;;5037362;28;20033;-82
2023/07/12 11:47:28;;;;;;;3.28;0.90;;;;;;;;;;5026975;28;20566;-83
2023/07/12 11:49:57;;;;;;;2.93;0.80;;;;;;;;;;5009437;28;20053;-84
2023/07/12 11:52:23;;;;;;;2.72;1.00;;;;;;;;;;5022972;28;20071;-83
2023/07/12 11:54:53;;;;;;;2.10;0.90;;;;;;;;;;5030740;28;20073;-83
2023/07/12 11:57:18;;;;;;;1.95;0.90;;;;;;;;;;5035579;28;20037;-83
2023/07/12 11:59:48;;;;;;;2.05;0.80;;;;;;;;;;5017604;28;20124;-83
2023/07/12 12:02:18;;;;;;;7.30;1.05;;;;;;;;;;5021372;28;20033;-82
2023/07/12 12:04:48;;;;;;;2.38;0.80;;;;;;;;;;5017439;28;20049;-83
2023/07/12 12:07:53;;;;;;;1.73;0.82;;;;;;;;;;5042378;28;20029;-83
2023/07/12 12:10:23;;;;;;;3.83;1.15;;;;;;;;;;4963106;28;20058;-83
2023/07/12 12:12:49;;;;;;;2.47;1.15;;;;;;;;;;4949891;28;20142;-84
2023/07/12 12:15:27;;;;;;;3.42;1.02;;;;;;;;;;4959896;28;20810;-83
2023/07/12 12:17:54;;;;;;;3.72;0.90;;;;;;;;;;4977819;28;20039;-83
2023/07/12 12:20:23;;;;;;;2.40;0.80;;;;;;;;;;4947586;28;20041;-83
2023/07/12 12:23:10;;;;;;;4.10;1.10;;;;;;;;;;4964302;28;20431;-83
2023/07/12 12:25:45;;;;;;;2.30;0.80;;;;;;;;;;4951417;28;20038;-83
2023/07/12 12:28:27;;;;;;;3.38;0.68;;;;;;;;;;4956470;28;20121;-84
2023/07/12 12:31:00;;;;;;;4.18;0.80;;;;;;;;;;4965079;28;20042;-82
2023/07/12 12:33:29;;;;;;;2.47;0.70;;;;;;;;;;4954495;28;20050;-83
2023/07/12 12:36:01;;;;;;;3.13;0.80;;;;;;;;;;4976674;28;20058;-82
2023/07/12 12:38:31;;;;;;;3.85;0.70;;;;;;;;;;4956465;28;20035;-83
2023/07/12 12:41:14;;;;;;;3.15;0.93;;;;;;;;;;4984598;28;20041;-85
2023/07/12 12:44:04;;;;;;;1.88;0.70;;;;;;;;;;5032747;28;20498;-83
2023/07/12 12:46:30;;;;;;;2.03;0.70;;;;;;;;;;5016356;28;22548;-83
2023/07/12 12:48:55;;;;;;;3.00;0.90;;;;;;;;;;5018401;28;20393;-82
2023/07/12 12:51:22;;;;;;;3.17;0.85;;;;;;;;;;5017451;28;20485;-83
2023/07/12 12:53:48;;;;;;;;;;;;;;;;;;5035176;28;20041;-82
2023/07/12 12:56:13;;;;;;;1.70;0.70;;;;;;;;;;5015752;28;20293;-84
2023/07/12 12:58:39;;;;;;;2.25;0.77;;;;;;;;;;5033170;28;20029;-83
2023/07/12 13:01:04;;;;;;;2.30;0.60;;;;;;;;;;5013532;28;20041;-83
2023/07/12 13:03:30;;;;;;;1.83;0.70;;;;;;;;;;5016193;28;20558;-80
2023/07/12 13:05:56;;;;;;;1.92;0.50;;;;;;;;;;5007165;28;20079;-82
2023/07/12 13:08:21;;;;;;;3.17;0.63;;;;;;;;;;5010984;28;20049;-81
2023/07/12 13:10:47;;;;;;;2.35;0.60;;;;;;;;;;5011013;28;20196;-83
2023/07/12 13:13:34;;;;;;;1.92;0.65;;;;;;;;;;5029062;28;20030;-85
2023/07/12 13:15:59;;;;;;;1.70;0.55;;;;;;;;;;4995642;28;20058;-86
2023/07/12 13:18:25;;;;;;;2.95;0.52;;;;;;;;;;4983818;28;20513;-84
2023/07/12 13:20:52;;;;;;;1.38;0.50;;;;;;;;;;4961332;28;20061;-85
2023/07/12 13:23:18;;;;;;;5.85;0.70;;;;;;;;;;4979043;28;20108;-85
2023/07/12 13:25:51;;;;;;;1.85;0.43;;;;;;;;;;4981774;28;20465;-84
2023/07/12 13:28:24;;;;;;;3.03;0.60;;;;;;;;;;4968028;28;20522;-85
2023/07/12 13:30:49;;;;;;;2.97;0.52;;;;;;;;;;4981374;28;20072;-85
2023/07/12 13:33:16;;;;;;;1.88;0.40;;;;;;;;;;4982264;28;20442;-84
2023/07/12 13:35:47;;;;;;;1.33;0.45;;;;;;;;;;4976129;28;20034;-86
2023/07/12 13:38:14;;;;;;;3.47;0.70;;;;;;;;;;4956730;28;20888;-83
2023/07/12 13:40:41;;;;;;;2.28;0.45;;;;;;;;;;4958300;28;20039;-85
2023/07/12 13:43:11;;;;;;;1.85;0.50;;;;;;;;;;4958559;28;20129;-86
2023/07/12 13:45:37;;;;;;;2.60;0.40;;;;;;;;;;4956277;28;20466;-87
2023/07/12 13:48:10;;;;;;;1.73;0.50;;;;;;;;;;4974272;28;20117;-86
2023/07/12 13:50:44;;;;;;;1.45;0.32;;;;;;;;;;4964315;28;20044;-84
2023/07/12 13:53:10;;;;;;;4.28;0.63;;;;;;;;;;4996484;28;20124;-85
2023/07/12 13:55:36;;;;;;;1.60;0.40;;;;;;;;;;5028290;28;20025;-84
2023/07/12 13:58:03;;;;;;;2.53;0.47;;;;;;;;;;5021576;28;20029;-84
2023/07/12 14:00:28;;;;;;;;;;;;;;;;;;5022683;28;20120;-84
2023/07/12 14:02:58;;;;;;;3.73;0.60;;;;;;;;;;4999381;28;20125;-84
2023/07/12 14:05:23;;;;;;;3.20;0.43;;;;;;;;;;5037486;28;20044;-84
2023/07/12 14:07:49;;;;;;;1.30;0.40;;;;;;;;;;5027769;28;20036;-84
2023/07/12 14:10:20;;;;;;;1.95;0.55;;;;;;;;;;5025993;28;20029;-84
2023/07/12 14:12:47;;;;;;;1.80;0.47;;;;;;;;;;5037941;28;20037;-84
2023/07/12 14:15:24;;;;;;;1.77;0.50;;;;;;;;;;5021702;28;20033;-84
2023/07/12 14:17:51;;;;;;;3.70;0.60;;;;;;;;;;5023082;28;20036;-84
2023/07/12 14:20:23;;;;;;;2.67;0.50;;;;;;;;;;5014096;28;20859;-84
2023/07/12 14:22:49;;;;;;;2.58;0.60;;;;;;;;;;5020765;28;20104;-85
2023/07/12 14:25:17;;;;;;;1.55;0.50;;;;;;;;;;5026437;28;20037;-85
2023/07/12 14:27:50;;;;;;;2.95;0.55;;;;;;;;;;5033719;28;20116;-84
2023/07/12 14:30:16;;;;;;;3.75;1.35;;;;;;;;;;5034951;28;20388;-85
2023/07/12 14:32:44;;;;;;;5.57;1.23;;;;;;;;;;5033588;28;20044;-86
2023/07/12 14:35:18;;;;;;;6.43;1.40;;;;;;;;;;5022569;28;20507;-84
2023/07/12 14:37:45;;;;;;;5.18;1.38;;;;;;;;;;5036710;28;20120;-84
2023/07/12 14:40:15;;;;;;;5.32;1.20;;;;;;;;;;4984648;28;20044;-85
2023/07/12 14:42:41;;;;;;;2.70;0.60;;;;;;;;;;5007787;28;20638;-84
2023/07/12 14:45:13;;;;;;;2.78;0.90;;;;;;;;;;5037159;28;20069;-84
2023/07/12 14:47:38;;;;;;;4.28;1.40;;;;;;;;;;5001174;28;20045;-84
2023/07/12 14:50:05;;;;;;;3.88;0.80;;;;;;;;;;5034088;28;20032;-84
2023/07/12 14:52:32;;;;;;;2.40;0.68;;;;;;;;;;5036712;28;20079;-84
2023/07/12 14:55:00;;;;;;;2.30;0.60;;;;;;;;;;5037376;28;20123;-84